createdAt,value
2023-05-22T17:21:23.320Z,41.89
2023-05-22T17:23:51.124Z,42.69
2023-05-22T17:26:18.568Z,42.83
2023-05-22T17:28:46.567Z,43.24
2023-05-22T17:31:14.083Z,43.76
2023-05-22T17:33:41.884Z,44.50
2023-05-22T17:36:09.387Z,44.89
2023-05-22T17:38:37.482Z,45.34
2023-05-22T17:41:04.866Z,46.00
2023-05-22T17:43:36.386Z,46.31
2023-05-22T17:46:04.294Z,46.88
2023-05-22T17:48:31.635Z,47.08
2023-05-22T17:51:00.995Z,46.96
2023-05-22T17:53:34.801Z,47.21
2023-05-22T17:56:03.420Z,47.27
2023-05-22T17:58:32.273Z,47.52
2023-05-22T18:00:59.819Z,48.14
2023-05-22T18:03:27.222Z,48.50
2023-05-22T18:05:55.075Z,49.25
2023-05-22T18:08:23.140Z,49.66
2023-05-22T18:10:50.705Z,50.20
2023-05-22T18:13:19.689Z,51.20
2023-05-22T18:15:48.346Z,52.69
2023-05-22T18:18:16.685Z,53.12
2023-05-22T18:20:46.194Z,52.75
2023-05-22T18:23:13.721Z,53.42
2023-05-22T18:25:41.679Z,54.00
2023-05-22T18:28:09.218Z,54.27
2023-05-22T18:30:36.585Z,55.17
2023-05-22T18:33:03.954Z,55.47
2023-05-22T18:35:31.435Z,56.69
2023-05-22T18:38:00.510Z,57.12
2023-05-22T18:40:28.026Z,57.51
2023-05-22T18:42:55.477Z,58.53
2023-05-22T18:45:23.006Z,59.61
2023-05-22T18:47:50.563Z,60.40
2023-05-22T18:50:18.272Z,60.94
2023-05-22T18:52:45.800Z,61.68
2023-05-22T18:55:13.051Z,62.44
2023-05-22T18:57:40.484Z,63.49
2023-05-22T19:00:10.206Z,63.77
2023-05-22T19:02:37.647Z,64.90
2023-05-22T19:05:06.586Z,65.42
2023-05-22T19:07:33.904Z,64.52
2023-05-22T19:10:01.506Z,65.01
2023-05-22T19:12:31.708Z,65.86
2023-05-22T19:15:00.108Z,66.55
2023-05-22T19:17:27.562Z,67.69
2023-05-22T19:19:54.989Z,68.60
2023-05-22T19:22:24.206Z,69.40
2023-05-22T19:24:51.584Z,70.05
2023-05-22T19:27:18.995Z,70.75
2023-05-22T19:29:46.355Z,70.00
2023-05-22T19:32:14.292Z,69.96
2023-05-22T19:34:42.171Z,70.04
2023-05-22T19:37:09.604Z,70.21
2023-05-22T19:39:37.092Z,70.53
2023-05-22T19:42:08.142Z,71.04
2023-05-22T19:44:35.743Z,71.50
2023-05-22T19:47:03.061Z,71.77
2023-05-22T19:49:31.704Z,72.36
2023-05-22T19:51:59.658Z,73.08
2023-05-22T19:54:26.995Z,73.92
2023-05-22T19:56:54.452Z,74.21
2023-05-22T19:59:21.752Z,75.13
2023-05-22T20:01:51.367Z,76.11
2023-05-22T20:04:21.525Z,76.60
2023-05-22T20:06:51.695Z,77.50
2023-05-22T20:09:19.223Z,78.20
2023-05-22T20:11:46.801Z,78.47
2023-05-22T20:14:14.466Z,79.03
2023-05-22T20:16:42.269Z,79.41
2023-05-22T20:19:10.468Z,80.18
2023-05-22T20:21:37.988Z,80.92
2023-05-22T20:24:12.113Z,81.38
2023-05-22T20:26:39.462Z,81.70
2023-05-22T20:29:06.798Z,81.93
2023-05-22T20:31:34.725Z,82.65
2023-05-22T20:34:04.036Z,82.72
2023-05-22T20:36:32.726Z,83.24
2023-05-22T20:39:00.153Z,83.63
2023-05-22T20:41:27.802Z,83.55
2023-05-22T20:43:55.195Z,84.26
2023-05-22T20:46:23.039Z,84.37
2023-05-22T20:48:51.347Z,84.76
2023-05-22T20:51:20.593Z,84.88
2023-05-22T20:53:48.519Z,85.31
2023-05-22T20:56:15.871Z,85.74
2023-05-22T20:58:43.168Z,85.93
2023-05-22T21:01:10.539Z,86.49
2023-05-22T21:03:37.984Z,86.78
2023-05-22T21:06:05.985Z,87.10
2023-05-22T21:08:33.307Z,87.50
2023-05-22T21:11:00.808Z,87.77
2023-05-22T21:13:28.114Z,88.40
2023-05-22T21:15:55.473Z,89.04
2023-05-22T21:18:23.027Z,89.73
2023-05-22T21:20:50.395Z,90.26
2023-05-22T21:23:17.704Z,90.77
2023-05-22T21:25:44.971Z,91.09
2023-05-22T21:28:12.380Z,91.14
2023-05-22T21:30:39.832Z,91.51
2023-05-22T21:33:07.374Z,92.18
2023-05-22T21:35:34.844Z,92.56
2023-05-22T21:38:02.653Z,92.55
2023-05-22T21:40:30.011Z,92.64
2023-05-22T21:42:57.570Z,92.84
2023-05-22T21:45:25.009Z,93.18
2023-05-22T21:47:52.781Z,93.30
2023-05-22T21:50:20.281Z,92.82
2023-05-22T21:52:47.601Z,93.21
2023-05-22T21:55:15.211Z,94.38
2023-05-22T21:57:42.535Z,95.22
2023-05-22T22:00:10.771Z,96.04
2023-05-22T22:02:38.131Z,96.68
2023-05-22T22:05:06.092Z,97.00
2023-05-22T22:07:33.456Z,97.24
2023-05-22T22:10:00.932Z,97.30
2023-05-22T22:12:28.298Z,97.82
2023-05-22T22:14:57.087Z,98.20
2023-05-22T22:17:24.396Z,98.71
2023-05-22T22:19:53.635Z,99.34
2023-05-22T22:22:22.867Z,99.92
2023-05-22T22:24:50.774Z,100.00
2023-05-22T22:27:18.206Z,100.00
2023-05-22T22:29:45.592Z,100.00
2023-05-22T22:32:13.096Z,100.00
2023-05-22T22:34:40.579Z,100.00
2023-05-22T22:37:07.998Z,100.00
2023-05-22T22:39:35.618Z,100.00
2023-05-22T22:42:05.257Z,100.00
2023-05-22T22:44:32.813Z,100.00
2023-05-22T22:47:04.647Z,100.00
2023-05-22T22:49:32.313Z,99.73
2023-05-22T22:51:59.697Z,99.21
2023-05-22T22:54:27.070Z,99.45
2023-05-22T22:56:54.572Z,100.00
2023-05-22T22:59:21.912Z,100.00
2023-05-22T23:01:49.270Z,100.00
2023-05-22T23:04:16.947Z,100.00
2023-05-22T23:06:44.525Z,100.00
2023-05-22T23:09:11.871Z,100.00
2023-05-22T23:11:39.198Z,100.00
2023-05-22T23:14:07.719Z,100.00
2023-05-22T23:16:36.105Z,100.00
2023-05-22T23:19:04.372Z,100.00
2023-05-22T23:21:32.103Z,100.00
2023-05-22T23:24:00.373Z,100.00
2023-05-22T23:26:28.415Z,100.00
2023-05-22T23:28:55.920Z,100.00
2023-05-22T23:31:25.978Z,100.00
2023-05-22T23:33:53.900Z,100.00
2023-05-22T23:36:21.241Z,100.00
2023-05-22T23:38:48.663Z,100.00
2023-05-22T23:41:18.941Z,100.00
2023-05-22T23:43:46.487Z,100.00
2023-05-22T23:46:14.218Z,100.00
2023-05-22T23:48:42.407Z,100.00
2023-05-22T23:51:10.178Z,100.00
2023-05-22T23:53:37.649Z,100.00
2023-05-22T23:56:05.177Z,100.00
2023-05-22T23:58:32.553Z,100.00
